DFFD/OUA METAR and TAF weather

Enter ICAO airport designator
Station Type Date Time Source
DFFD METAR 2021/09/27 08:00 UTC NOAA

DFFD 270800Z 21009KT CAVOK 28/20 Q1015 NOSIG


Station Type Date Time Source
DFFD Decoded METAR 2021/09/27 08:00 UTC NOAA

Ouagadougou, Burkina Faso (DFFD) 12-21N 001-31W 306M
Sep 27, 2021 - 04:00 AM EDT / 2021.09.27 0800 UTC
Wind: from the SSW (210 degrees) at 10 MPH (9 KT):0
Visibility: greater than 7 mile(s):0
Temperature: 82 F (28 C)
Dew Point: 68 F (20 C)
Relative Humidity: 61%
Pressure (altimeter): 29.97 in. Hg (1015 hPa)
ob: DFFD 270800Z 21009KT CAVOK 28/20 Q1015 NOSIG
cycle: 8

Station Type Date Time Source
DFFD TAF 2021/09/27 06:10 UTC NOAA

TAF DFFD 270500Z 2706/2812 22008KT 9999 FEW026 PROB30
TEMPO 2707/2712 4000 TSRA SCT026 FEW033CB

Example: see airport list